Terminal Aerodrome Forecast
Issued by NWS

Home | Current Version | Previous Version | Text Only | Print | Product List | Glossary On
Versions: 1 2 3 4 5 6 7 8 9 10 11 12 13 14
055
FTUS45 KFGZ 281138
TAFPGA
TAF
KPGA 281138Z 2812/2912 VRB05KT P6SM SCT120 PROB30 2821/2901
      VRB20G30KT TS BKN060CB=

USA.gov is the U.S. government's official web portal to all federal, state and local government web resources and services.